Terminal Aerodrome Forecast
Issued by NWS Cleveland, OH

Home | Current Version | Previous Version | Graphics & Text | Print | Product List | Glossary On
Versions: 1 2 3 4 5 6 7 8 9 10 11 12 13 14
672
FTUS41 KCLE 071724
TAFTOL
TAF
KTOL 071724Z 0718/0818 24012G18KT P6SM BKN100
     FM080200 26012KT P6SM OVC025
     FM080900 26015G25KT P6SM OVC025=

USA.gov is the U.S. government's official web portal to all federal, state and local government web resources and services.